Time;durP1;ratioP1;P1;durP2;ratioP2;P2;SDS_P1;SDS_P2;PMS_P1;PMS_P2;Temp;Humidity;BMP_temperature;BMP_pressure;BME280_temperature;BME280_humidity;BME280_pressure;Samples;Min_cycle;Max_cycle;Signal;HPM_P1;HPM_P2
2021/12/23 00:02:12;;;;;;;18.35;11.32;;;;;;;0.71;79.83;101601.22;5016589;28;20049;-49
2021/12/23 00:04:40;;;;;;;16.95;12.68;;;;;;;0.71;80.11;101611.94;5010404;28;20101;-54
2021/12/23 00:07:07;;;;;;;20.95;13.43;;;;;;;0.71;80.07;101615.44;5011435;28;20038;-50
2021/12/23 00:10:05;;;;;;;20.27;12.55;;;;;;;0.71;79.82;101607.41;5010528;28;20128;-51
2021/12/23 00:12:23;;;;;;;21.15;12.88;;;;;;;0.68;79.85;101597.06;5025191;28;20071;-51
2021/12/23 00:14:51;;;;;;;18.23;12.55;;;;;;;0.69;79.87;101595.19;5013596;28;20458;-51
2021/12/23 00:19:59;;;;;;;19.42;13.07;;;;;;;0.65;79.78;101592.06;5023248;28;20384;-51
2021/12/23 00:25:13;;;;;;;19.30;12.68;;;;;;;0.69;79.78;101561.16;5031987;28;20095;-51
2021/12/23 00:27:40;;;;;;;18.95;12.13;;;;;;;0.72;79.98;101563.50;5033108;28;20034;-54
2021/12/23 00:30:09;;;;;;;20.27;12.65;;;;;;;0.73;79.82;101559.78;5031109;28;20542;-50
2021/12/23 00:32:37;;;;;;;19.42;12.27;;;;;;;0.74;79.75;101574.84;5031993;28;20045;-52
2021/12/23 00:35:05;;;;;;;20.48;13.00;;;;;;;0.73;79.49;101567.81;5032136;28;20113;-49
2021/12/23 00:37:39;;;;;;;22.05;12.85;;;;;;;0.73;79.49;101554.41;5032807;28;20118;-50
2021/12/23 00:40:09;;;;;;;20.23;13.05;;;;;;;0.73;79.19;101542.88;5040430;28;20037;-51
2021/12/23 00:42:37;;;;;;;18.40;13.38;;;;;;;0.72;79.51;101542.03;5031822;28;20462;-53
2021/12/23 00:45:06;;;;;;;19.13;12.65;;;;;;;0.70;79.74;101536.03;5034393;28;20450;-48
2021/12/23 00:47:34;;;;;;;19.30;12.95;;;;;;;0.70;79.70;101541.38;5047659;28;20048;-50
2021/12/23 00:50:01;;;;;;;21.25;13.05;;;;;;;0.71;79.53;101551.09;5055320;28;20114;-49
2021/12/23 00:52:34;;;;;;;19.75;12.82;;;;;;;0.72;79.44;101558.13;5054039;28;20407;-49
2021/12/23 00:55:06;;;;;;;19.75;12.65;;;;;;;0.72;79.25;101550.09;5055159;28;20544;-49
2021/12/23 00:57:38;;;;;;;16.17;11.77;;;;;;;0.74;79.91;101544.50;5055219;28;20041;-49
2021/12/23 01:00:12;;;;;;;16.80;12.30;;;;;;;0.75;79.51;101543.50;5052923;28;20053;-50
2021/12/23 01:02:43;;;;;;;20.80;13.60;;;;;;;0.74;79.67;101542.66;5055398;28;20056;-49
2021/12/23 01:05:14;;;;;;;17.77;12.35;;;;;;;0.74;79.06;101534.63;5055122;28;20403;-50
2021/12/23 01:07:41;;;;;;;20.90;13.52;;;;;;;0.70;78.95;101530.66;5036997;28;20049;-51
2021/12/23 01:10:10;;;;;;;16.33;12.05;;;;;;;0.69;79.32;101545.06;5047099;28;20036;-53
2021/12/23 01:12:44;;;;;;;18.88;13.20;;;;;;;0.71;79.78;101540.34;5054106;28;20087;-52
2021/12/23 01:15:28;;;;;;;19.85;13.05;;;;;;;0.73;79.92;101545.53;5054897;28;20083;-50
2021/12/23 01:17:57;;;;;;;20.00;13.40;;;;;;;0.75;79.68;101538.97;5055059;28;20419;-53
2021/12/23 01:20:30;;;;;;;18.70;11.75;;;;;;;0.77;79.30;101550.34;5052687;28;20407;-52
2021/12/23 01:23:05;;;;;;;16.88;11.13;;;;;;;0.79;79.54;101531.38;5053956;28;20594;-51
2021/12/23 01:25:34;;;;;;;18.63;12.88;;;;;;;0.79;79.19;101523.31;5050815;28;20076;-51
2021/12/23 01:28:03;;;;;;;20.85;13.20;;;;;;;0.78;79.31;101525.19;5034624;28;20457;-50
2021/12/23 01:30:31;;;;;;;18.48;13.23;;;;;;;0.77;79.41;101518.16;5035631;28;20041;-51
2021/12/23 01:32:59;;;;;;;20.60;13.07;;;;;;;0.74;79.00;101515.84;5053161;28;20110;-48
2021/12/23 01:35:27;;;;;;;19.80;12.90;;;;;;;0.72;79.49;101507.16;5056296;28;20029;-55
2021/12/23 01:37:54;;;;;;;18.60;12.50;;;;;;;0.72;79.39;101511.69;5038901;28;20510;-54
2021/12/23 01:40:25;;;;;;;18.88;13.43;;;;;;;0.74;79.55;101513.16;5016947;28;20518;-55
2021/12/23 01:42:53;;;;;;;20.73;12.95;;;;;;;0.75;79.40;101506.78;5035715;28;20415;-54
2021/12/23 01:45:24;;;;;;;18.05;12.82;;;;;;;0.75;79.56;101498.75;5034553;28;20045;-51
2021/12/23 01:47:52;;;;;;;19.52;13.15;;;;;;;0.76;79.39;101497.72;5034512;28;20033;-55
2021/12/23 01:50:24;;;;;;;20.83;12.82;;;;;;;0.77;79.14;101499.41;5035065;28;20064;-51
2021/12/23 01:52:51;;;;;;;21.58;12.93;;;;;;;0.79;79.37;101499.19;5034138;28;20495;-52
2021/12/23 01:55:19;;;;;;;19.95;13.90;;;;;;;0.80;79.01;101493.66;5033381;28;20037;-51
2021/12/23 01:57:49;;;;;;;20.63;12.98;;;;;;;0.80;79.04;101488.28;5034517;28;20049;-50
2021/12/23 02:00:19;;;;;;;19.23;13.38;;;;;;;0.79;79.37;101497.34;5034068;28;20038;-48
2021/12/23 02:02:47;;;;;;;17.95;13.30;;;;;;;0.78;79.18;101490.31;5034464;28;20057;-50
2021/12/23 02:05:15;;;;;;;21.52;13.75;;;;;;;0.77;78.96;101480.63;5032616;28;20392;-50
2021/12/23 02:07:43;;;;;;;19.45;13.23;;;;;;;0.76;79.36;101470.06;5034205;28;20045;-49
2021/12/23 02:10:11;;;;;;;20.42;13.68;;;;;;;0.75;79.19;101477.28;5033856;28;20034;-52
2021/12/23 02:12:44;;;;;;;17.67;12.70;;;;;;;0.75;79.41;101469.25;5034890;28;20048;-50
2021/12/23 02:15:13;;;;;;;18.55;12.63;;;;;;;0.77;79.04;101459.16;5033258;28;20045;-50
2021/12/23 02:17:41;;;;;;;19.33;13.18;;;;;;;0.79;79.32;101454.41;5053618;28;20415;-51
2021/12/23 02:20:11;;;;;;;19.90;13.77;;;;;;;0.79;78.84;101459.78;5053470;28;20040;-49
2021/12/23 02:22:41;;;;;;;20.98;13.98;;;;;;;0.77;78.16;101456.47;5051803;28;20048;-53
2021/12/23 02:25:10;;;;;;;20.13;14.00;;;;;;;0.69;78.45;101453.88;5053462;28;20499;-49
2021/12/23 02:27:40;;;;;;;19.00;13.93;;;;;;;0.64;78.67;101440.22;5052265;28;20053;-52
2021/12/23 02:30:12;;;;;;;21.88;13.45;;;;;;;0.63;78.63;101449.28;5053735;28;20036;-50
2021/12/23 02:32:40;;;;;;;22.15;14.20;;;;;;;0.63;78.58;101436.69;5051698;28;20056;-53
2021/12/23 02:35:12;;;;;;;18.45;13.25;;;;;;;0.65;78.84;101431.16;5051511;28;20556;-52
2021/12/23 02:37:41;;;;;;;21.92;15.13;;;;;;;0.65;79.02;101439.22;5053315;28;20097;-49
2021/12/23 02:40:11;;;;;;;20.05;14.60;;;;;;;0.64;78.59;101429.47;5038805;28;20099;-53
2021/12/23 02:42:39;;;;;;;21.55;13.75;;;;;;;0.60;78.37;101438.91;5033279;28;20049;-47
2021/12/23 02:45:09;;;;;;;23.05;14.07;;;;;;;0.59;78.76;101448.00;5033028;28;20049;-52
2021/12/23 02:47:37;;;;;;;19.92;12.88;;;;;;;0.62;78.81;101453.78;5033495;28;20407;-50
2021/12/23 02:50:07;;;;;;;24.40;15.38;;;;;;;0.61;78.99;101451.31;5040943;28;20036;-51
2021/12/23 02:52:36;;;;;;;19.08;12.95;;;;;;;0.60;78.58;101450.50;5051643;28;20041;-52
2021/12/23 02:55:05;;;;;;;19.88;13.32;;;;;;;0.60;79.15;101445.13;5052806;28;20125;-53
2021/12/23 02:57:34;;;;;;;18.08;12.45;;;;;;;0.56;78.34;101440.31;5052828;28;20053;-49
2021/12/23 03:00:03;;;;;;;13.85;10.52;;;;;;;0.57;78.62;101432.06;5050491;28;20082;-52
2021/12/23 03:02:30;;;;;;;18.48;13.20;;;;;;;0.58;78.87;101432.94;5031518;28;20053;-51
2021/12/23 03:04:58;;;;;;;20.30;13.50;;;;;;;0.59;78.63;101419.31;5032929;28;20076;-51
2021/12/23 03:07:26;;;;;;;18.98;13.13;;;;;;;0.57;78.84;101409.78;5052047;28;20384;-50
2021/12/23 03:09:54;;;;;;;17.95;13.38;;;;;;;0.56;78.74;101417.03;5051037;28;20045;-48
2021/12/23 03:12:21;;;;;;;22.73;14.55;;;;;;;0.57;78.62;101407.13;5048028;28;20103;-54
2021/12/23 03:14:49;;;;;;;18.20;13.68;;;;;;;0.54;78.02;101410.19;5032751;28;20049;-51
2021/12/23 03:17:17;;;;;;;19.65;13.63;;;;;;;0.51;78.24;101413.25;5032773;28;20385;-53
2021/12/23 03:19:44;;;;;;;17.52;13.18;;;;;;;0.52;78.21;101404.16;5032443;28;20037;-54
2021/12/23 03:22:12;;;;;;;18.70;14.02;;;;;;;0.53;77.82;101409.34;5032946;28;20042;-50
2021/12/23 03:24:40;;;;;;;19.73;12.88;;;;;;;0.56;78.09;101405.47;5032559;28;20458;-50
2021/12/23 03:27:07;;;;;;;17.52;14.35;;;;;;;0.59;77.95;101407.75;5032669;28;20408;-54
2021/12/23 03:29:35;;;;;;;20.25;14.73;;;;;;;0.57;77.77;101405.25;5033841;28;20061;-54
2021/12/23 03:32:03;;;;;;;16.95;12.30;;;;;;;0.59;77.89;101387.13;5032501;28;20041;-50
2021/12/23 03:34:31;;;;;;;19.90;15.13;;;;;;;0.55;77.43;101382.34;5031257;28;20500;-51
2021/12/23 03:36:58;;;;;;;21.63;15.55;;;;;;;0.53;77.58;101379.88;5047441;28;20053;-51
2021/12/23 03:39:26;;;;;;;19.83;14.85;;;;;;;0.53;77.26;101376.31;5050348;28;20045;-50
2021/12/23 03:41:54;;;;;;;20.27;14.02;;;;;;;0.48;77.56;101373.38;5052143;28;20041;-48
2021/12/23 03:44:22;;;;;;;19.45;14.95;;;;;;;0.45;77.62;101363.03;5052326;28;20033;-50
2021/12/23 03:46:49;;;;;;;22.33;14.45;;;;;;;0.45;77.41;101355.00;5051967;28;20068;-50
2021/12/23 03:49:17;;;;;;;18.48;14.27;;;;;;;0.45;78.05;101352.31;5044518;28;20041;-51
2021/12/23 03:51:45;;;;;;;20.33;15.40;;;;;;;0.44;76.99;101345.31;5043970;28;20098;-50
2021/12/23 03:54:12;;;;;;;18.92;14.80;;;;;;;0.37;77.73;101327.28;5052211;28;20051;-50
2021/12/23 03:56:41;;;;;;;20.15;14.70;;;;;;;0.37;77.77;101303.16;5052360;28;20099;-49
2021/12/23 03:59:09;;;;;;;17.75;13.52;;;;;;;0.37;77.64;101313.88;5050719;28;20040;-51
2021/12/23 04:01:37;;;;;;;18.05;13.52;;;;;;;0.41;77.90;101314.34;5052133;28;20049;-49
2021/12/23 04:04:06;;;;;;;20.00;14.38;;;;;;;0.40;78.03;101305.47;5051993;28;20105;-50
2021/12/23 04:06:34;;;;;;;20.85;14.43;;;;;;;0.40;77.26;101305.47;5037616;28;20053;-51
2021/12/23 04:09:02;;;;;;;19.95;14.68;;;;;;;0.33;78.10;101309.91;5033165;28;20045;-54
2021/12/23 04:11:30;;;;;;;21.58;15.60;;;;;;;0.34;77.96;101316.94;5032294;28;20054;-49
2021/12/23 04:13:58;;;;;;;21.42;14.75;;;;;;;0.35;78.00;101321.28;5032467;28;20519;-52
2021/12/23 04:16:26;;;;;;;16.60;12.05;;;;;;;0.40;78.14;101305.47;5032052;28;20045;-50
2021/12/23 04:18:54;;;;;;;23.10;14.20;;;;;;;0.51;78.10;101297.97;5032681;28;20048;-53
2021/12/23 04:21:22;;;;;;;18.70;14.45;;;;;;;0.46;77.94;101308.41;5035526;28;20044;-50
2021/12/23 04:23:50;;;;;;;17.48;13.13;;;;;;;0.41;78.06;101304.47;5035598;28;20053;-49
2021/12/23 04:26:18;;;;;;;15.45;11.82;;;;;;;0.42;78.20;101311.47;5036023;28;20091;-53
2021/12/23 04:28:46;;;;;;;16.85;13.27;;;;;;;0.44;78.22;101315.81;5035755;28;20110;-50
2021/12/23 04:31:21;;;;;;;18.48;13.77;;;;;;;0.46;78.21;101297.69;5036597;28;20054;-51
2021/12/23 04:33:51;;;;;;;20.27;13.90;;;;;;;0.45;78.25;101288.81;5035710;28;20049;-51
2021/12/23 04:36:19;;;;;;;18.27;14.40;;;;;;;0.40;78.71;101297.41;5046960;28;20074;-51
2021/12/23 04:38:47;;;;;;;18.70;11.75;;;;;;;0.40;78.98;101299.28;5055301;28;20053;-54
2021/12/23 04:41:15;;;;;;;16.15;12.73;;;;;;;0.50;80.50;101289.06;5053286;28;20090;-54
2021/12/23 04:43:43;;;;;;;18.48;13.85;;;;;;;0.51;79.71;101295.28;5048827;28;20102;-47
2021/12/23 04:46:11;;;;;;;14.73;10.38;;;;;;;0.65;84.96;101286.34;5035550;28;20049;-51
2021/12/23 04:48:39;;;;;;;18.92;13.90;;;;;;;0.62;81.47;101282.19;5035052;28;20045;-54
2021/12/23 04:51:06;;;;;;;20.77;14.88;;;;;;;0.61;81.70;101261.75;5036024;28;20052;-50
2021/12/23 04:53:34;;;;;;;21.65;14.82;;;;;;;0.53;80.37;101263.72;5043122;28;20087;-47
2021/12/23 04:56:02;;;;;;;18.98;15.25;;;;;;;0.50;79.97;101277.53;5055162;28;20094;-50
2021/12/23 04:58:29;;;;;;;20.63;12.73;;;;;;;0.51;80.35;101281.88;5040346;28;20107;-51
2021/12/23 05:00:57;;;;;;;15.25;9.95;;;;;;;0.59;82.96;101279.88;5035021;28;20041;-50
2021/12/23 05:03:26;;;;;;;17.60;12.02;;;;;;;0.69;83.90;101276.88;5035971;28;20065;-48
2021/12/23 05:05:53;;;;;;;18.02;13.10;;;;;;;0.83;85.89;101267.13;5035173;28;20041;-51
2021/12/23 05:08:21;;;;;;;18.55;14.27;;;;;;;0.72;82.43;101262.25;5035095;28;20463;-52
2021/12/23 05:10:48;;;;;;;22.10;16.20;;;;;;;0.66;81.76;101258.50;5034897;28;20099;-49
2021/12/23 05:13:16;;;;;;;20.60;15.13;;;;;;;0.62;81.20;101249.19;5044792;28;20094;-52
2021/12/23 05:15:44;;;;;;;21.25;13.55;;;;;;;0.66;82.63;101249.63;5054302;28;20391;-50
2021/12/23 05:18:12;;;;;;;16.58;12.82;;;;;;;0.60;80.79;101246.72;5054728;28;20509;-50
2021/12/23 05:20:39;;;;;;;22.17;16.10;;;;;;;0.70;85.74;101246.38;5054572;28;20053;-52
2021/12/23 05:23:07;;;;;;;22.83;15.13;;;;;;;0.55;82.49;101248.28;5052614;28;20167;-51
2021/12/23 05:25:35;;;;;;;17.35;13.05;;;;;;;0.49;82.32;101239.16;5054389;28;20044;-52
2021/12/23 05:28:03;;;;;;;18.67;13.50;;;;;;;0.50;81.33;101237.31;5052685;28;20454;-49
2021/12/23 05:30:31;;;;;;;19.63;14.35;;;;;;;0.50;80.66;101238.13;5053611;28;20071;-49
2021/12/23 05:32:59;;;;;;;19.15;13.90;;;;;;;0.48;81.71;101236.66;5054288;28;20045;-52
2021/12/23 05:35:27;;;;;;;19.20;13.85;;;;;;;0.52;81.64;101237.94;5054486;28;20049;-51
2021/12/23 05:37:55;;;;;;;15.13;11.63;;;;;;;0.63;83.44;101230.22;5052952;28;20060;-49
2021/12/23 05:40:24;;;;;;;17.30;13.45;;;;;;;0.64;81.92;101234.56;5054325;28;20432;-52
2021/12/23 05:42:52;;;;;;;20.50;13.77;;;;;;;0.66;82.98;101231.69;5053109;28;20040;-51
2021/12/23 05:45:20;;;;;;;14.77;10.57;;;;;;;0.65;82.56;101232.72;5054088;28;20048;-52
2021/12/23 05:47:48;;;;;;;15.52;10.18;;;;;;;0.68;84.41;101216.25;5054160;28;20047;-51
2021/12/23 05:50:17;;;;;;;12.95;7.78;;;;;;;0.69;83.91;101223.25;5036579;28;20083;-52
2021/12/23 05:52:45;;;;;;;20.20;15.13;;;;;;;0.70;82.49;101227.59;5032857;28;20122;-50
2021/12/23 05:55:14;;;;;;;15.57;10.32;;;;;;;0.72;84.58;101217.53;5033927;28;20042;-51
2021/12/23 05:57:42;;;;;;;19.75;15.25;;;;;;;0.74;84.42;101206.59;5041053;28;20041;-49
2021/12/23 06:00:15;;;;;;;19.52;15.13;;;;;;;0.75;84.31;101210.94;5053844;28;20072;-52
2021/12/23 06:02:42;;;;;;;17.45;13.07;;;;;;;0.72;83.62;101214.00;5053868;28;20049;-50
2021/12/23 06:05:11;;;;;;;13.43;8.98;;;;;;;0.73;86.27;101219.16;5053485;28;20060;-52
2021/12/23 06:07:39;;;;;;;19.45;13.77;;;;;;;0.75;85.25;101227.84;5054004;28;20534;-53
2021/12/23 06:10:07;;;;;;;13.23;10.05;;;;;;;0.80;88.51;101219.22;5035441;28;20053;-52
2021/12/23 06:12:35;;;;;;;14.27;9.18;;;;;;;0.84;89.80;101213.28;5033862;28;20450;-50
2021/12/23 06:15:04;;;;;;;18.77;13.82;;;;;;;0.82;87.40;101218.00;5033559;28;20041;-52
2021/12/23 06:17:31;;;;;;;17.17;12.10;;;;;;;0.82;87.72;101212.66;5042694;28;20048;-49
2021/12/23 06:19:59;;;;;;;16.73;12.98;;;;;;;0.79;86.31;101206.81;5051775;28;20488;-54
2021/12/23 06:22:27;;;;;;;16.15;11.52;;;;;;;0.81;88.73;101205.59;5053152;28;20040;-51
2021/12/23 06:24:55;;;;;;;16.55;10.30;;;;;;;0.93;90.38;101197.03;5053297;28;20106;-53
2021/12/23 06:27:23;;;;;;;19.45;14.73;;;;;;;0.90;87.63;101189.38;5053015;28;20041;-53
2021/12/23 06:29:50;;;;;;;19.27;14.75;;;;;;;0.87;88.32;101181.72;5051462;28;20057;-51
2021/12/23 06:32:18;;;;;;;24.02;17.40;;;;;;;0.90;88.97;101176.81;5053624;28;20052;-51
2021/12/23 06:34:46;;;;;;;20.85;16.48;;;;;;;0.74;86.37;101185.94;5051934;28;20057;-50
2021/12/23 06:37:13;;;;;;;20.58;15.13;;;;;;;0.71;87.09;101167.56;5052900;28;20053;-52
2021/12/23 06:39:41;;;;;;;21.13;16.52;;;;;;;0.69;85.70;101168.78;5036588;28;20048;-52
2021/12/23 06:42:09;;;;;;;20.00;14.80;;;;;;;0.66;85.21;101159.28;5032915;28;20457;-49
2021/12/23 06:44:36;;;;;;;21.48;16.10;;;;;;;0.73;86.57;101157.50;5033590;28;20480;-53
2021/12/23 06:47:04;;;;;;;23.77;17.55;;;;;;;0.68;84.57;101159.94;5033493;28;20042;-53
2021/12/23 06:49:33;;;;;;;14.50;10.65;;;;;;;0.75;88.48;101166.16;5040057;28;20445;-47
2021/12/23 06:52:01;;;;;;;22.13;16.70;;;;;;;0.84;91.76;101156.97;4354052;28;10000683;-54
2021/12/23 06:54:28;;;;;;;13.75;9.57;;;;;;;0.87;91.78;101145.00;5035153;28;20044;-52
2021/12/23 06:56:56;;;;;;;17.67;12.75;;;;;;;0.96;94.34;101145.66;5031335;28;20045;-48
2021/12/23 06:59:24;;;;;;;21.08;13.88;;;;;;;0.88;88.28;101152.03;5032532;28;20502;-48
2021/12/23 07:01:51;;;;;;;21.65;16.63;;;;;;;0.71;85.77;101156.03;5031612;28;20092;-53
2021/12/23 07:04:22;;;;;;;23.77;18.98;;;;;;;0.60;85.08;101162.72;5031413;28;20075;-52
2021/12/23 07:07:09;;;;;;;25.35;18.13;;;;;;;0.61;86.42;101181.31;5030982;28;20051;-53
2021/12/23 07:09:37;;;;;;;;;;;;;;;0.63;87.60;101181.13;5035579;28;20049;-51
2021/12/23 07:12:06;;;;;;;23.48;17.67;;;;;;;0.68;84.83;101185.91;5032229;28;20287;-54
2021/12/23 07:14:34;;;;;;;21.90;15.38;;;;;;;0.70;84.65;101182.03;5031285;28;20053;-49
2021/12/23 07:17:02;;;;;;;20.92;14.68;;;;;;;0.75;84.68;101174.22;5031458;28;20436;-49
2021/12/23 07:19:29;;;;;;;20.33;12.40;;;;;;;0.82;86.96;101180.47;5031064;28;20053;-54
2021/12/23 07:21:57;;;;;;;24.10;15.80;;;;;;;0.83;85.86;101163.34;5031729;28;20072;-50
2021/12/23 07:24:25;;;;;;;17.38;12.55;;;;;;;0.88;87.06;101169.97;5029575;28;20045;-50
2021/12/23 07:26:53;;;;;;;21.30;15.32;;;;;;;0.85;84.93;101179.25;5033362;28;20045;-53
2021/12/23 07:29:20;;;;;;;20.70;15.57;;;;;;;0.83;84.19;101181.28;5031666;28;20037;-51
2021/12/23 07:31:48;;;;;;;20.30;15.48;;;;;;;0.84;84.42;101162.31;5039743;28;20446;-53
2021/12/23 07:34:15;;;;;;;22.90;17.15;;;;;;;0.90;84.78;101163.38;5035244;28;20042;-51
2021/12/23 07:36:43;;;;;;;26.67;19.73;;;;;;;0.89;83.86;101161.75;5033542;28;20041;-50
2021/12/23 07:39:11;;;;;;;22.10;16.05;;;;;;;0.86;83.96;101162.09;5032620;28;20095;-49
2021/12/23 07:41:58;;;;;;;15.73;12.48;;;;;;;0.87;84.94;101157.56;5033479;28;20094;-50
2021/12/23 07:44:36;;;;;;;18.80;13.43;;;;;;;0.89;84.70;101159.06;5052383;28;20515;-51
2021/12/23 07:47:03;;;;;;;19.77;13.73;;;;;;;0.95;86.40;101163.63;5052246;28;20107;-50
2021/12/23 07:49:31;;;;;;;20.20;13.27;;;;;;;0.97;86.74;101172.31;5052432;28;20049;-49
2021/12/23 07:51:59;;;;;;;25.25;17.77;;;;;;;0.95;84.97;101178.91;5052258;28;20044;-48
2021/12/23 07:54:26;;;;;;;13.93;8.85;;;;;;;0.96;87.50;101178.72;5052293;28;20052;-49
2021/12/23 07:56:54;;;;;;;22.70;12.60;;;;;;;1.06;90.44;101171.13;5056344;28;20144;-49
2021/12/23 07:59:22;;;;;;;21.35;15.88;;;;;;;1.11;89.08;101167.00;5048718;28;20111;-49
2021/12/23 08:01:50;;;;;;;24.00;18.83;;;;;;;1.08;86.99;101165.56;5036256;28;20050;-48
2021/12/23 08:04:17;;;;;;;27.50;19.63;;;;;;;1.01;84.69;101156.63;5049790;28;20048;-48
2021/12/23 08:06:51;;;;;;;23.23;18.23;;;;;;;0.98;84.74;101159.72;5073917;28;20051;-52
2021/12/23 08:09:19;;;;;;;25.27;16.52;;;;;;;0.98;85.37;101149.00;5059583;28;20041;-49
2021/12/23 08:11:46;;;;;;;27.67;18.83;;;;;;;0.96;84.87;101148.34;5055772;28;20045;-51
2021/12/23 08:14:14;;;;;;;24.55;17.33;;;;;;;0.93;84.48;101148.75;5054520;28;20103;-49
2021/12/23 08:16:43;;;;;;;24.33;17.25;;;;;;;0.95;84.98;101149.38;5056156;28;20438;-46
2021/12/23 08:19:11;;;;;;;21.08;14.30;;;;;;;1.06;86.05;101148.84;5054436;28;20503;-52
2021/12/23 08:21:39;;;;;;;23.52;17.90;;;;;;;1.18;88.37;101149.09;5054535;28;20045;-52
2021/12/23 08:24:06;;;;;;;22.92;17.45;;;;;;;1.16;86.30;101143.13;5054473;28;20064;-51
2021/12/23 08:26:40;;;;;;;27.00;19.77;;;;;;;1.11;84.33;101157.13;5055639;28;20041;-49
2021/12/23 08:29:08;;;;;;;23.17;17.52;;;;;;;1.09;84.11;101161.03;5040987;28;20045;-49
2021/12/23 08:31:37;;;;;;;26.58;19.55;;;;;;;1.10;84.11;101162.69;5055497;28;20045;-52
2021/12/23 08:34:04;;;;;;;24.02;18.00;;;;;;;1.12;84.23;101158.78;5052604;28;20105;-54
2021/12/23 08:36:32;;;;;;;23.75;17.08;;;;;;;1.14;84.04;101146.00;5035482;28;20076;-52
2021/12/23 08:39:00;;;;;;;25.05;17.92;;;;;;;1.13;83.68;101138.97;5035632;28;20046;-49
2021/12/23 08:41:28;;;;;;;27.05;19.58;;;;;;;1.11;83.63;101127.63;5046021;28;20045;-51
2021/12/23 08:43:56;;;;;;;22.13;15.68;;;;;;;1.13;84.32;101119.34;5055199;28;20438;-53
2021/12/23 08:46:23;;;;;;;26.15;19.60;;;;;;;1.11;83.67;101124.94;5055540;28;20044;-48
2021/12/23 08:48:51;;;;;;;21.65;16.65;;;;;;;1.11;83.52;101122.25;5053595;28;20041;-52
2021/12/23 08:51:19;;;;;;;24.25;17.95;;;;;;;1.10;83.43;101117.06;5047480;28;20045;-51
2021/12/23 08:53:46;;;;;;;23.25;18.05;;;;;;;1.07;83.46;101112.94;5035083;28;20128;-48
2021/12/23 08:56:14;;;;;;;25.45;19.05;;;;;;;1.05;83.17;101102.38;5045942;28;20049;-50
2021/12/23 08:58:42;;;;;;;28.75;19.92;;;;;;;0.98;83.39;101098.84;5055047;28;20037;-50
2021/12/23 09:01:11;;;;;;;30.70;21.20;;;;;;;0.93;83.10;101095.09;5045562;28;20052;-51
2021/12/23 09:03:39;;;;;;;27.27;20.25;;;;;;;0.89;83.00;101091.16;5054510;28;20076;-54
2021/12/23 09:06:06;;;;;;;27.23;19.98;;;;;;;0.83;83.54;101090.91;5034842;28;20041;-53
2021/12/23 09:08:34;;;;;;;25.60;20.05;;;;;;;0.82;84.03;101086.59;5036243;28;20049;-49
2021/12/23 09:11:02;;;;;;;29.10;21.08;;;;;;;0.92;84.90;101099.63;5035002;28;20038;-50
2021/12/23 09:13:31;;;;;;;28.63;21.83;;;;;;;0.95;84.23;101101.09;5034869;28;20122;-45
2021/12/23 09:15:59;;;;;;;27.90;20.30;;;;;;;0.95;83.83;101098.41;5033691;28;20458;-49
2021/12/23 09:18:27;;;;;;;26.42;19.25;;;;;;;1.02;84.31;101088.56;5034900;28;20110;-49
2021/12/23 09:20:56;;;;;;;29.92;20.15;;;;;;;1.03;83.99;101084.81;5035832;28;20048;-50
2021/12/23 09:23:24;;;;;;;32.13;21.52;;;;;;;1.06;83.79;101085.28;5033200;28;20053;-48
2021/12/23 09:25:53;;;;;;;28.85;19.63;;;;;;;1.09;83.64;101069.81;5034761;28;20042;-47
2021/12/23 09:28:51;;;;;;;27.38;19.75;;;;;;;1.12;83.55;101083.63;5034755;28;20049;-49
2021/12/23 09:34:06;;;;;;;29.40;20.42;;;;;;;1.20;84.20;101088.84;5034576;28;20038;-50
2021/12/23 09:36:34;;;;;;;27.83;20.17;;;;;;;1.24;84.57;101076.66;5033172;28;20038;-50
2021/12/23 09:39:03;;;;;;;27.33;20.40;;;;;;;1.23;84.53;101075.03;5033293;28;20042;-49
2021/12/23 09:41:33;;;;;;;24.02;12.20;;;;;;;1.33;86.98;101071.16;5034255;28;20065;-48
2021/12/23 09:44:02;;;;;;;26.38;19.17;;;;;;;1.38;86.33;101066.81;5034646;28;20041;-51
2021/12/23 09:46:30;;;;;;;26.60;16.02;;;;;;;1.46;87.55;101057.75;5034542;28;20051;-49
2021/12/23 09:49:00;;;;;;;29.13;21.15;;;;;;;1.39;85.82;101062.28;5034143;28;20404;-51
2021/12/23 09:51:30;;;;;;;27.52;20.00;;;;;;;1.40;86.30;101059.41;5035058;28;20041;-49
2021/12/23 09:54:03;;;;;;;26.88;18.80;;;;;;;1.38;85.73;101053.41;5033912;28;20041;-46
2021/12/23 09:56:32;;;;;;;27.55;18.58;;;;;;;1.37;85.45;101045.53;5034159;28;20053;-51
2021/12/23 09:59:06;;;;;;;28.02;20.27;;;;;;;1.35;85.29;101042.22;5034176;28;20099;-49
2021/12/23 10:01:35;;;;;;;28.17;21.17;;;;;;;1.41;87.01;101030.69;5035038;28;20037;-49
2021/12/23 10:04:03;;;;;;;28.85;21.52;;;;;;;1.49;88.07;101031.34;5032718;28;20068;-49
2021/12/23 10:06:31;;;;;;;29.75;21.05;;;;;;;1.42;86.17;101027.81;5033751;28;20041;-49
2021/12/23 10:08:59;;;;;;;29.83;19.30;;;;;;;1.54;90.96;101027.19;5032593;28;20038;-50
2021/12/23 10:12:26;;;;;;;27.50;16.52;;;;;;;1.64;92.54;101033.84;5033780;28;20045;-50
2021/12/23 10:31:46;;;;;;;25.60;11.68;;;;;;;2.44;100.00;100993.53;5034786;28;20053;-49
2021/12/23 10:37:21;;;;;;;16.95;8.40;;;;;;;2.21;100.00;100985.91;5011351;28;20050;-49
2021/12/23 10:40:09;;;;;;;23.33;13.88;;;;;;;2.11;100.00;100986.31;5012457;28;20057;-49
2021/12/23 10:42:37;;;;;;;26.75;19.73;;;;;;;1.99;100.00;100966.50;5011274;28;20475;-50
2021/12/23 10:45:11;;;;;;;27.02;20.05;;;;;;;1.88;100.00;100965.25;4994845;28;20038;-49
2021/12/23 10:47:52;;;;;;;29.05;17.38;;;;;;;2.12;100.00;100952.22;4995077;28;20065;-46
2021/12/23 10:50:40;;;;;;;20.95;11.60;;;;;;;2.17;100.00;100951.59;4995857;28;20049;-49
2021/12/23 10:53:22;;;;;;;24.45;15.07;;;;;;;2.38;100.00;100940.56;5011024;28;20050;-47
2021/12/23 10:59:14;;;;;;;29.38;20.63;;;;;;;2.56;100.00;100932.66;5011058;28;20045;-49
2021/12/23 11:02:03;;;;;;;19.52;12.88;;;;;;;2.70;100.00;100929.94;5011008;28;20058;-49
2021/12/23 11:04:37;;;;;;;20.00;12.40;;;;;;;2.61;100.00;100931.22;5010704;28;20065;-47
2021/12/23 11:07:14;;;;;;;19.38;11.13;;;;;;;2.60;100.00;100929.53;5010828;28;20188;-51
2021/12/23 11:10:35;;;;;;;17.42;8.10;;;;;;;2.92;100.00;100925.91;5010976;28;20042;-50
2021/12/23 11:30:32;;;;;;;15.80;9.38;;;;;;;3.22;100.00;100890.31;5032645;28;20471;-50
2021/12/23 11:38:23;;;;;;;18.83;11.02;;;;;;;2.91;100.00;100872.28;5032402;28;20504;-48
2021/12/23 11:40:55;;;;;;;25.45;17.02;;;;;;;2.89;100.00;100869.81;5037083;28;20472;-53
2021/12/23 11:43:33;;;;;;;17.17;12.07;;;;;;;2.89;100.00;100866.31;5052808;28;20033;-48
2021/12/23 11:46:01;;;;;;;24.20;15.20;;;;;;;2.76;100.00;100861.81;5051186;28;20415;-48
2021/12/23 11:48:31;;;;;;;20.42;12.15;;;;;;;3.04;100.00;100860.63;5052474;28;20037;-50
2021/12/23 11:51:07;;;;;;;16.30;9.07;;;;;;;3.19;100.00;100843.09;5051725;28;20166;-50
2021/12/23 11:53:36;;;;;;;;;;;;;;;3.34;100.00;100829.34;5032044;28;20045;-49
2021/12/23 11:56:06;;;;;;;11.75;6.03;;;;;;;3.40;100.00;100831.13;5032719;28;19925;-52
2021/12/23 11:58:35;;;;;;;11.68;5.82;;;;;;;3.55;100.00;100829.97;5032099;28;20365;-52
2021/12/23 12:01:06;;;;;;;17.33;9.32;;;;;;;3.82;100.00;100817.91;5032337;28;20094;-48
2021/12/23 12:03:53;;;;;;;19.35;12.40;;;;;;;3.59;100.00;100809.63;5033086;28;20326;-48
2021/12/23 12:06:38;;;;;;;13.85;8.35;;;;;;;3.33;100.00;100810.69;5032520;28;20091;-47
2021/12/23 12:09:13;;;;;;;13.15;7.15;;;;;;;3.46;100.00;100799.78;5030928;28;20042;-48
2021/12/23 12:11:47;;;;;;;12.75;6.93;;;;;;;3.43;100.00;100794.84;5030494;28;20045;-48
2021/12/23 12:14:34;;;;;;;22.02;14.07;;;;;;;3.28;100.00;100792.50;5032711;28;20147;-50
2021/12/23 12:17:26;;;;;;;28.00;19.92;;;;;;;2.96;100.00;100789.03;5030257;28;20057;-49
2021/12/23 12:20:12;;;;;;;30.85;21.25;;;;;;;2.83;100.00;100784.56;5031887;28;20042;-48
2021/12/23 12:22:59;;;;;;;30.87;19.70;;;;;;;2.72;100.00;100771.84;5033571;28;20050;-55
2021/12/23 12:25:28;;;;;;;30.33;21.35;;;;;;;2.61;100.00;100764.44;5033572;28;20746;-47